DXXX/LFW METAR and TAF weather

Enter ICAO airport designator
Station Type Date Time Source
DXXX METAR 2020/04/05 18:00 UTC NOAA

DXXX 051800Z 19010KT 9999 FEW015 29/25 Q1010 NOSIG


Station Type Date Time Source
DXXX Decoded METAR 2020/04/05 18:00 UTC NOAA

Lome, Togo (DXXX) 06-10N 001-15E 25M
Apr 05, 2020 - 02:00 PM EDT / 2020.04.05 1800 UTC
Wind: from the S (190 degrees) at 12 MPH (10 KT):0
Visibility: greater than 7 mile(s):0
Sky conditions: mostly clear
Temperature: 84 F (29 C)
Dew Point: 77 F (25 C)
Relative Humidity: 79%
Pressure (altimeter): 29.83 in. Hg (1010 hPa)
ob: DXXX 051800Z 19010KT 9999 FEW015 29/25 Q1010 NOSIG
cycle: 18

Station Type Date Time Source
DXXX TAF 2020/04/05 12:21 UTC NOAA

TAF DXXX 051100Z 0512/0618 20010KT 9999 FEW015
BECMG 0522/0524 VRB03KT
BECMG 0608/0610 20010KT

Example: see airport list